Carolina, Brazil
Current Conditions -  °F | °C
As of 8:00 PM on Monday 22 Dec 2014 (Local Time) from SBVT Reporting Station
Few Clouds Few Clouds  
Wind Chill: 77°   Ceiling: Unl
Heat Index: 79°   Visibility: 6mi
Dew Point: 70°   Wind: 17mph
Humidity: 78%   Direction: 40°NE
Pressure: 29.85"   Gusts: NA
Location:  20.53°S, 40.83°W
Report Text: SBVT 222200Z 04015KT 9999 FEW030 25/21 Q1011
Loading
Personal Weather Stations






























Interactive Weather Map New forecast layout! Learn more

10-Day Weather Forecast

Advertisements
Track Severe Weather on mobile